Aeroporto :
LOGIN :

Iscrizione | Disclaimer

   EN    FR    IT 

 










Sommario :    VFR   VFR Marginale   IFR   IFR Intensivo   IFR Molto Intensivo
Visibilità : 
Base nubi : 
>= 8 km
>= 3000ft
5 / 8 km
1000 / 3000 ft
1500m / 5 km
500 / 1000 ft
800 / 1500m
200 / 500 ft
< 800m
< 200 ft
Simboli :   Temporali  Nebbia  Neve Forte  Precipitazioni Forti  Vento > 20 kt
SIGMETs :   Varie  Temporali  Ghiacco  Turbolenza  Onda orograficha  Ceneri Vulcaniche






- Altitudine del aeroporto : 794 ft


LKCV - Čáslav Air Base

ULTIMO METAR :
  • 261447Z 32005KT 9999 TS SCT036CB BKN100 23/15 Q1018 RMK BLU

METARs OBSOLETI :
  • 261430Z 32003KT 290V350 9999 FEW032CB BKN080 23/14 Q1018 NOSIG RMK BLU BLU
  • 261400Z 30003KT 240V340 9999 FEW033TCU BKN180 23/14 Q1019 NOSIG RMK BLU BLU
  • 261330Z 27007KT CAVOK 23/14 Q1019 NOSIG RMK BLUBLU
  • 261300Z 28004KT 9999 FEW031TCU BKN220 22/13 Q1019 NOSIG RMK BLUBLU
  • 261240Z 13005KT 090V160 9999 FEW045 BKN220 23/13 Q1019 RMK BLU
  • 261230Z 16005KT 140V230 9999 VCTS FEW045CB BKN240 23/12 Q1019 NOSIG RMK BLU BLU
  • 261207Z 15007KT 100V190 9999 VCTS FEW045CB BKN180 23/14 Q1019 RMK BLU
  • 261130Z 11006KT 060V140 9999 FEW043TCU BKN110 23/13 Q1019 NOSIG RMK BLU BLU
  • 261100Z 12004KT 080V190 9999 SCT033 BKN200 22/13 Q1020 NOSIG RMK BLU BLU
  • 261030Z 14006KT 100V200 9999 FEW031 BKN170 22/13 Q1020 NOSIG RMK BLU BLU
  • 261000Z 10003KT 030V160 9999 FEW030 BKN180 21/14 Q1020 NOSIG RMK BLU BLU

TAF TAF LKCV
Valido dal 26 a 12 ore il 27 a 12 ore UTC


261100Z 2612/2712 12007KT CAVOK
TEMPO 2612/2621 14012KT 7000 SHRA BKN025TCU
PROB30
TEMPO 2612/2618 14014KT 5000 TSRA BKN022CB
TEMPO 2708/2712 SCT025



MetMap, La meteo Aeronautica in un colpo d'occhio ! - Copyright ORBIFLY Dicembre 2007 - Disclaimer

ORBIFLY MET'MAP TEAM :

Programmazione e sviluppo : Alexandra Zaïnal
Concezione : Baudouin d'Aumeries
Supporto tecnico e logistico : Manuel Goepfert
Aiuto : Marc-Olivier Méhu
Aiuto per la traduzione : Arnaldo La Scala




FONTI E CREDITI :

   NOAA